Time;durP1;ratioP1;P1;durP2;ratioP2;P2;SDS_P1;SDS_P2;PMS_P1;PMS_P2;Temp;Humidity;BMP_temperature;BMP_pressure;BME280_temperature;BME280_humidity;BME280_pressure;Samples;Min_cycle;Max_cycle;Signal;HPM_P1;HPM_P2
2021/06/06 00:00:13;;;;;;;4.23;3.50;;;14.70;99.90;;;;;;5011669;28;20859;-56
2021/06/06 00:02:40;;;;;;;4.50;3.93;;;14.80;99.90;;;;;;5012265;28;20465;-56
2021/06/06 00:05:10;;;;;;;4.83;3.67;;;14.80;99.90;;;;;;5012107;28;20452;-56
2021/06/06 00:07:36;;;;;;;3.93;3.20;;;14.90;99.90;;;;;;5011433;28;20867;-56
2021/06/06 00:10:04;;;;;;;4.37;3.97;;;14.90;99.90;;;;;;5012468;28;20478;-56
2021/06/06 00:12:30;;;;;;;3.70;3.40;;;14.90;99.90;;;;;;5011719;28;20457;-56
2021/06/06 00:14:57;;;;;;;3.13;2.93;;;14.90;99.90;;;;;;5012750;28;20511;-56
2021/06/06 00:17:23;;;;;;;4.23;3.33;;;14.90;99.90;;;;;;5011196;28;20824;-57
2021/06/06 00:19:50;;;;;;;3.83;3.53;;;14.90;99.90;;;;;;5012206;28;20477;-56
2021/06/06 00:22:18;;;;;;;3.97;3.40;;;14.90;99.90;;;;;;5004852;28;20503;-56
2021/06/06 00:24:45;;;;;;;3.70;3.40;;;15.00;99.90;;;;;;5012354;28;20448;-56
2021/06/06 00:27:12;;;;;;;3.30;2.90;;;14.90;99.90;;;;;;5011874;28;20461;-56
2021/06/06 00:29:38;;;;;;;3.60;3.30;;;14.90;99.90;;;;;;5012182;28;20473;-56
2021/06/06 00:32:05;;;;;;;2.80;2.60;;;15.00;99.90;;;;;;5009942;28;20462;-56
2021/06/06 00:34:32;;;;;;;3.83;2.97;;;14.90;99.90;;;;;;5011636;28;20854;-56
2021/06/06 00:36:59;;;;;;;4.70;3.87;;;15.00;99.90;;;;;;5011819;28;20456;-56
2021/06/06 00:39:27;;;;;;;4.87;3.07;;;15.00;99.90;;;;;;5011997;28;20480;-56
2021/06/06 00:41:54;;;;;;;3.97;3.57;;;15.00;99.90;;;;;;5010532;28;20453;-56
2021/06/06 00:44:24;;;;;;;3.43;3.13;;;14.90;99.90;;;;;;5011745;28;20464;-56
2021/06/06 00:46:50;;;;;;;6.93;2.83;;;15.00;99.90;;;;;;5010631;28;20536;-56
2021/06/06 00:49:18;;;;;;;4.97;3.73;;;15.00;99.90;;;;;;5011703;28;20473;-56
2021/06/06 00:51:49;;;;;;;3.80;3.50;;;15.00;99.90;;;;;;5011487;28;20488;-56
2021/06/06 00:54:19;;;;;;;4.10;3.23;;;15.00;99.90;;;;;;5011738;28;20450;-55
2021/06/06 00:56:51;;;;;;;4.93;3.57;;;14.90;99.90;;;;;;5001132;28;20454;-55
2021/06/06 00:59:21;;;;;;;5.13;4.13;;;14.90;99.90;;;;;;5010808;28;20994;-56
2021/06/06 01:01:48;;;;;;;4.73;3.97;;;14.90;99.90;;;;;;5011710;28;20438;-56
2021/06/06 01:04:15;;;;;;;5.30;4.20;;;14.80;99.90;;;;;;5011457;28;20452;-56
2021/06/06 01:06:44;;;;;;;4.77;3.87;;;14.80;99.90;;;;;;5009682;28;20454;-56
2021/06/06 01:09:13;;;;;;;6.37;3.63;;;14.70;99.90;;;;;;5012067;28;20456;-55
2021/06/06 01:11:46;;;;;;;3.97;3.30;;;14.70;99.90;;;;;;5010911;28;20875;-56
2021/06/06 01:14:18;;;;;;;4.93;3.53;;;14.50;99.90;;;;;;5010053;28;20453;-56
2021/06/06 01:16:49;;;;;;;3.50;3.10;;;14.50;99.90;;;;;;5011240;28;20453;-55
2021/06/06 01:19:27;;;;;;;3.80;3.17;;;14.50;99.90;;;;;;5011678;28;20476;-56
2021/06/06 01:22:07;;;;;;;3.17;2.87;;;14.50;99.90;;;;;;5002576;28;20959;-56
2021/06/06 01:24:39;;;;;;;7.80;3.50;;;14.50;99.90;;;;;;5005213;28;20445;-56
2021/06/06 01:27:08;;;;;;;7.23;3.30;;;14.50;99.90;;;;;;5011169;28;20453;-56
2021/06/06 01:29:40;;;;;;;3.70;3.30;;;14.40;99.90;;;;;;5009208;28;20465;-56
2021/06/06 01:32:12;;;;;;;3.60;3.00;;;14.50;99.90;;;;;;5011470;28;20454;-55
2021/06/06 01:34:41;;;;;;;3.13;2.93;;;14.40;99.90;;;;;;5011475;28;20481;-56
2021/06/06 01:37:11;;;;;;;3.00;2.80;;;14.30;99.90;;;;;;5000340;28;20496;-55
2021/06/06 01:39:45;;;;;;;5.80;3.47;;;14.30;99.90;;;;;;5001455;28;20990;-56
2021/06/06 01:42:18;;;;;;;4.47;3.63;;;14.30;99.90;;;;;;5002548;28;20965;-55
2021/06/06 01:44:49;;;;;;;5.13;3.20;;;14.30;99.90;;;;;;5011601;28;20503;-55
2021/06/06 01:47:19;;;;;;;4.27;3.87;;;14.30;99.90;;;;;;5013198;28;20453;-55
2021/06/06 01:49:49;;;;;;;3.60;3.30;;;14.40;99.90;;;;;;5009144;28;20479;-55
2021/06/06 01:52:18;;;;;;;3.73;3.17;;;14.40;99.90;;;;;;5011589;28;20479;-56
2021/06/06 01:54:47;;;;;;;5.70;3.13;;;14.30;99.90;;;;;;5014896;28;20477;-55
2021/06/06 01:57:18;;;;;;;6.57;3.20;;;14.30;99.90;;;;;;5014824;28;20468;-55
2021/06/06 01:59:48;;;;;;;5.17;4.20;;;14.30;99.90;;;;;;5003618;28;20488;-55
2021/06/06 02:02:15;;;;;;;5.73;4.50;;;14.40;99.90;;;;;;5014999;28;20452;-55
2021/06/06 02:04:42;;;;;;;6.30;4.70;;;14.40;99.90;;;;;;5014874;28;20491;-55
2021/06/06 02:07:14;;;;;;;6.10;4.60;;;14.40;99.90;;;;;;5013190;28;20512;-55
2021/06/06 02:09:49;;;;;;;6.70;3.73;;;14.40;99.90;;;;;;5014370;28;20871;-55
2021/06/06 02:12:16;;;;;;;3.70;3.40;;;14.50;99.90;;;;;;5014692;28;20452;-55
2021/06/06 02:14:47;;;;;;;3.53;3.23;;;14.50;99.90;;;;;;5014015;28;20828;-56
2021/06/06 02:17:19;;;;;;;3.10;2.90;;;14.40;99.90;;;;;;5014896;28;20446;-56
2021/06/06 02:19:47;;;;;;;3.33;3.03;;;14.30;99.90;;;;;;5013295;28;20608;-55
2021/06/06 02:22:16;;;;;;;4.10;3.57;;;14.30;99.90;;;;;;4994934;28;20451;-55
2021/06/06 02:24:44;;;;;;;3.30;3.00;;;14.40;99.90;;;;;;5014656;28;20803;-56
2021/06/06 02:27:19;;;;;;;4.60;3.40;;;14.40;99.90;;;;;;5013979;28;20502;-55
2021/06/06 02:29:55;;;;;;;4.20;3.47;;;14.30;99.90;;;;;;5013588;28;20476;-56
2021/06/06 02:32:31;;;;;;;4.50;3.60;;;14.30;99.90;;;;;;5014405;28;20496;-55
2021/06/06 02:35:06;;;;;;;3.87;3.50;;;14.20;99.90;;;;;;5013610;28;20477;-55
2021/06/06 02:37:41;;;;;;;3.80;3.13;;;14.20;99.90;;;;;;5014029;28;20480;-56
2021/06/06 02:40:15;;;;;;;5.37;3.60;;;14.10;99.90;;;;;;5012424;28;20473;-56
2021/06/06 02:42:45;;;;;;;4.27;3.87;;;14.10;99.90;;;;;;5012894;28;20453;-55
2021/06/06 02:45:16;;;;;;;3.23;2.97;;;14.10;99.90;;;;;;4995737;28;20486;-56
2021/06/06 02:47:44;;;;;;;3.80;3.43;;;14.00;99.90;;;;;;4998087;28;20873;-55
2021/06/06 02:50:15;;;;;;;7.00;3.87;;;14.10;99.90;;;;;;5015548;28;20469;-55
2021/06/06 02:52:45;;;;;;;6.57;3.63;;;14.10;99.90;;;;;;5014566;28;20453;-56
2021/06/06 02:55:15;;;;;;;3.70;3.30;;;14.00;99.90;;;;;;5015178;28;20512;-56
2021/06/06 02:57:50;;;;;;;3.83;3.50;;;14.10;99.90;;;;;;5013607;28;20990;-55
2021/06/06 03:00:20;;;;;;;3.97;3.43;;;14.10;99.90;;;;;;5014539;28;20485;-56
2021/06/06 03:02:51;;;;;;;6.00;4.03;;;14.00;99.90;;;;;;5014636;28;20469;-56
2021/06/06 03:05:23;;;;;;;6.93;4.07;;;14.00;99.90;;;;;;5014797;28;20450;-56
2021/06/06 03:07:52;;;;;;;5.30;3.83;;;14.00;99.90;;;;;;5013965;28;20464;-56
2021/06/06 03:10:25;;;;;;;4.70;4.17;;;14.00;99.90;;;;;;5013701;28;20480;-55
2021/06/06 03:12:56;;;;;;;8.63;4.87;;;14.00;99.90;;;;;;5007315;28;20532;-55
2021/06/06 03:15:27;;;;;;;4.80;4.30;;;14.10;99.90;;;;;;5009016;28;20477;-55
2021/06/06 03:17:55;;;;;;;5.30;4.27;;;14.10;99.90;;;;;;5013250;28;20468;-55
2021/06/06 03:20:27;;;;;;;4.63;4.10;;;14.10;99.90;;;;;;5013359;28;21010;-55
2021/06/06 03:22:55;;;;;;;4.30;3.77;;;14.00;99.90;;;;;;5013314;28;20453;-56
2021/06/06 03:25:32;;;;;;;5.00;4.07;;;14.10;99.90;;;;;;5013384;28;20452;-55
2021/06/06 03:28:00;;;;;;;4.50;3.90;;;14.10;99.90;;;;;;5007972;28;20457;-55
2021/06/06 03:30:34;;;;;;;5.17;4.10;;;14.00;99.90;;;;;;5012950;28;20477;-55
2021/06/06 03:33:04;;;;;;;4.50;3.90;;;14.00;99.90;;;;;;5004858;28;20516;-55
2021/06/06 03:35:30;;;;;;;4.87;4.37;;;14.00;99.90;;;;;;5003951;28;21068;-56
2021/06/06 03:37:57;;;;;;;6.37;4.80;;;14.00;99.90;;;;;;5011332;28;20512;-56
2021/06/06 03:40:26;;;;;;;4.60;4.07;;;13.90;99.90;;;;;;5012752;28;20465;-56
2021/06/06 03:42:53;;;;;;;4.47;4.07;;;13.90;99.90;;;;;;5012772;28;20446;-56
2021/06/06 03:45:22;;;;;;;6.20;4.17;;;13.90;99.90;;;;;;5012546;28;20450;-56
2021/06/06 03:47:48;;;;;;;5.37;3.57;;;13.90;99.90;;;;;;5012364;28;20866;-55
2021/06/06 03:50:17;;;;;;;5.53;4.10;;;13.90;99.90;;;;;;5007852;28;20473;-55
2021/06/06 03:52:44;;;;;;;5.43;4.47;;;14.00;99.90;;;;;;5011912;28;20449;-56
2021/06/06 03:55:13;;;;;;;6.57;4.27;;;14.00;99.90;;;;;;5012704;28;20481;-55
2021/06/06 03:57:39;;;;;;;8.70;5.57;;;13.90;99.90;;;;;;5012864;28;20460;-55
2021/06/06 04:00:10;;;;;;;5.50;4.70;;;13.90;99.90;;;;;;5041872;22;20495;-49
2021/06/06 04:02:38;;;;;;;6.37;5.20;;;14.00;99.90;;;;;;5031556;28;20992;-49
2021/06/06 04:05:05;;;;;;;7.80;5.23;;;14.00;99.90;;;;;;5031856;28;20825;-50
2021/06/06 04:07:31;;;;;;;5.73;4.97;;;14.10;99.90;;;;;;5030717;28;20456;-49
2021/06/06 04:10:00;;;;;;;4.73;4.23;;;14.00;99.90;;;;;;5030193;28;20470;-49
2021/06/06 04:12:26;;;;;;;4.63;4.10;;;14.10;99.90;;;;;;5027899;28;20453;-50
2021/06/06 04:14:53;;;;;;;5.73;4.57;;;14.10;99.90;;;;;;5026422;28;20835;-49
2021/06/06 04:17:19;;;;;;;5.27;4.53;;;14.10;99.90;;;;;;5012291;28;20457;-48
2021/06/06 04:19:47;;;;;;;5.60;4.10;;;14.20;99.90;;;;;;5023016;28;20500;-49
2021/06/06 04:22:14;;;;;;;6.10;4.37;;;14.20;99.90;;;;;;5030932;28;20958;-50
2021/06/06 04:24:41;;;;;;;5.17;4.10;;;14.20;99.90;;;;;;5031899;28;20460;-50
2021/06/06 04:27:08;;;;;;;4.03;3.63;;;14.20;99.90;;;;;;5032132;28;20445;-50
2021/06/06 04:29:34;;;;;;;4.40;4.00;;;14.20;99.90;;;;;;5020386;28;20457;-48
2021/06/06 04:32:04;;;;;;;4.17;3.77;;;14.10;99.90;;;;;;5019355;28;20446;-49
2021/06/06 04:34:31;;;;;;;4.13;3.73;;;14.10;99.90;;;;;;5012116;28;20827;-49
2021/06/06 04:36:59;;;;;;;4.00;3.60;;;14.20;99.90;;;;;;5011975;28;20454;-49
2021/06/06 04:39:26;;;;;;;3.70;3.30;;;14.20;99.90;;;;;;5017881;28;20505;-48
2021/06/06 04:41:53;;;;;;;5.70;3.60;;;14.30;99.90;;;;;;5031457;28;20456;-49
2021/06/06 04:44:20;;;;;;;5.37;3.50;;;14.30;99.90;;;;;;5031640;28;21023;-49
2021/06/06 04:46:46;;;;;;;4.23;3.30;;;14.30;99.90;;;;;;5027580;28;20446;-50
2021/06/06 04:49:13;;;;;;;3.57;3.27;;;14.30;99.90;;;;;;5016103;28;20502;-49
2021/06/06 04:51:40;;;;;;;4.40;3.97;;;14.30;99.90;;;;;;5025249;28;20974;-49
2021/06/06 04:54:08;;;;;;;4.33;3.73;;;14.30;99.90;;;;;;5021039;28;20440;-49
2021/06/06 04:56:34;;;;;;;6.83;3.90;;;14.40;99.90;;;;;;5031466;28;20487;-49
2021/06/06 04:59:01;;;;;;;4.60;3.87;;;14.50;99.90;;;;;;5029987;28;20946;-49
2021/06/06 05:01:28;;;;;;;4.57;4.03;;;14.50;99.90;;;;;;5031112;28;20483;-49
2021/06/06 05:03:54;;;;;;;5.10;3.60;;;14.60;99.90;;;;;;5023242;28;21027;-49
2021/06/06 05:06:21;;;;;;;6.27;3.77;;;14.50;99.90;;;;;;5023141;28;20464;-50
2021/06/06 05:08:47;;;;;;;4.07;3.67;;;14.40;99.90;;;;;;5020483;28;20465;-49
2021/06/06 05:11:16;;;;;;;4.20;3.70;;;14.50;99.90;;;;;;5021873;28;20491;-49
2021/06/06 05:13:42;;;;;;;4.90;3.70;;;14.60;99.90;;;;;;5019817;28;20465;-49
2021/06/06 05:16:09;;;;;;;4.10;3.30;;;14.60;99.90;;;;;;5029803;28;20480;-49
2021/06/06 05:18:36;;;;;;;5.70;3.63;;;14.60;99.90;;;;;;5018740;28;20471;-50
2021/06/06 05:21:04;;;;;;;4.47;3.40;;;14.60;99.90;;;;;;5021624;28;20857;-48
2021/06/06 05:23:32;;;;;;;5.67;3.90;;;14.50;99.90;;;;;;5025834;28;20456;-49
2021/06/06 05:25:59;;;;;;;4.20;3.80;;;14.40;99.90;;;;;;5029027;28;20949;-48
2021/06/06 05:28:29;;;;;;;9.80;4.30;;;14.40;99.90;;;;;;5024197;28;20465;-50
2021/06/06 05:30:56;;;;;;;3.53;3.23;;;14.50;99.90;;;;;;5023198;28;20484;-48
2021/06/06 05:33:23;;;;;;;4.47;3.50;;;14.50;99.90;;;;;;5026425;28;20465;-49
2021/06/06 05:35:51;;;;;;;5.87;4.10;;;14.40;99.90;;;;;;5026626;28;21029;-49
2021/06/06 05:38:20;;;;;;;4.40;3.90;;;14.40;99.90;;;;;;5025356;28;20465;-49
2021/06/06 05:40:46;;;;;;;4.40;4.00;;;14.40;99.90;;;;;;5024656;28;20488;-50
2021/06/06 05:43:14;;;;;;;4.43;4.03;;;14.60;99.90;;;;;;5026227;28;20460;-48
2021/06/06 05:45:42;;;;;;;4.83;4.37;;;14.60;99.90;;;;;;5026424;28;20975;-48
2021/06/06 05:48:09;;;;;;;5.63;4.40;;;14.70;99.90;;;;;;5025611;28;20456;-48
2021/06/06 05:50:38;;;;;;;7.90;4.13;;;14.60;99.90;;;;;;5032415;28;21067;-48
2021/06/06 05:53:05;;;;;;;5.40;4.60;;;14.60;99.90;;;;;;5025469;28;20468;-48
2021/06/06 05:55:32;;;;;;;4.50;4.10;;;14.70;99.90;;;;;;5028914;28;20488;-49
2021/06/06 05:57:59;;;;;;;5.63;5.03;;;14.70;99.90;;;;;;5027124;28;20837;-49
2021/06/06 06:00:30;;;;;;;5.80;4.90;;;14.70;99.90;;;;;;5018714;28;20476;-49
2021/06/06 06:02:58;;;;;;;5.10;4.60;;;14.80;99.90;;;;;;5029941;28;20533;-49
2021/06/06 06:05:25;;;;;;;8.03;5.43;;;14.80;99.90;;;;;;5015277;28;20445;-48
2021/06/06 06:07:53;;;;;;;7.83;5.67;;;14.70;99.90;;;;;;5022433;28;20456;-49
2021/06/06 06:10:22;;;;;;;6.63;5.37;;;14.70;99.90;;;;;;5034998;28;20461;-49
2021/06/06 06:12:49;;;;;;;5.13;4.63;;;14.70;99.90;;;;;;5034793;28;20448;-49
2021/06/06 06:15:17;;;;;;;6.30;4.93;;;14.80;99.90;;;;;;5034598;28;21088;-49
2021/06/06 06:17:44;;;;;;;8.63;5.20;;;14.80;99.90;;;;;;5035196;28;20483;-49
2021/06/06 06:20:16;;;;;;;7.50;5.10;;;14.90;99.90;;;;;;5034856;28;20820;-49
2021/06/06 06:22:43;;;;;;;5.00;4.13;;;14.90;99.90;;;;;;5034618;28;20457;-49
2021/06/06 06:25:13;;;;;;;5.10;4.60;;;14.90;99.90;;;;;;5034596;28;20445;-49
2021/06/06 06:27:39;;;;;;;4.50;4.10;;;15.00;99.90;;;;;;5034683;28;20480;-48
2021/06/06 06:30:08;;;;;;;5.17;3.63;;;15.10;99.90;;;;;;5033445;28;20541;-49
2021/06/06 06:32:35;;;;;;;4.30;3.90;;;15.10;99.90;;;;;;5028940;28;20475;-49
2021/06/06 06:35:02;;;;;;;4.90;3.43;;;15.20;99.90;;;;;;5025731;28;20481;-49
2021/06/06 06:37:30;;;;;;;3.77;3.27;;;15.20;99.90;;;;;;5022174;28;20575;-48
2021/06/06 06:39:57;;;;;;;4.40;3.50;;;15.20;99.90;;;;;;5025808;28;20489;-49
2021/06/06 06:42:24;;;;;;;3.20;2.90;;;15.20;99.90;;;;;;5021379;28;20468;-49
2021/06/06 06:44:50;;;;;;;5.03;3.63;;;15.20;99.90;;;;;;5010449;28;20465;-49
2021/06/06 06:47:17;;;;;;;3.53;3.23;;;15.40;99.90;;;;;;5014015;28;20554;-49
2021/06/06 06:49:44;;;;;;;4.87;3.03;;;15.50;99.90;;;;;;5024989;28;20868;-50
2021/06/06 06:52:11;;;;;;;3.97;3.20;;;15.60;99.90;;;;;;5026654;28;20893;-49
2021/06/06 06:54:39;;;;;;;3.10;2.80;;;15.70;99.90;;;;;;5020015;28;20461;-49
2021/06/06 06:57:06;;;;;;;3.60;2.60;;;15.70;99.90;;;;;;5024757;28;20519;-49
2021/06/06 06:59:32;;;;;;;3.40;2.80;;;15.70;99.90;;;;;;5024935;28;20456;-49
2021/06/06 07:02:01;;;;;;;2.50;2.30;;;15.80;99.90;;;;;;5024901;28;20456;-49
2021/06/06 07:04:27;;;;;;;4.30;2.33;;;15.90;99.90;;;;;;5024404;28;20488;-49
2021/06/06 07:06:55;;;;;;;2.23;2.03;;;15.90;99.90;;;;;;5027807;28;20456;-50
2021/06/06 07:09:23;;;;;;;2.30;2.20;;;15.90;99.90;;;;;;5027551;28;20522;-49
2021/06/06 07:11:52;;;;;;;2.30;2.20;;;16.00;99.90;;;;;;5024675;28;20997;-50
2021/06/06 07:14:18;;;;;;;5.00;2.07;;;16.10;99.90;;;;;;5025381;28;20469;-49
2021/06/06 07:16:45;;;;;;;2.67;2.47;;;16.20;99.90;;;;;;5025359;28;20485;-48
2021/06/06 07:19:12;;;;;;;3.67;2.80;;;16.20;99.90;;;;;;5024520;28;20467;-48
2021/06/06 07:21:39;;;;;;;4.43;2.73;;;16.20;99.90;;;;;;5024499;28;20477;-49
2021/06/06 07:24:06;;;;;;;2.60;2.40;;;16.20;99.90;;;;;;5025165;28;20476;-50
2021/06/06 07:26:36;;;;;;;3.07;2.83;;;16.20;99.90;;;;;;5024832;28;20506;-49
2021/06/06 07:29:08;;;;;;;3.00;2.80;;;16.50;99.90;;;;;;5024702;28;20534;-48
2021/06/06 07:31:35;;;;;;;2.83;2.60;;;16.50;99.90;;;;;;5023746;28;20484;-49
2021/06/06 07:34:02;;;;;;;3.43;2.50;;;16.50;99.90;;;;;;5024328;28;20471;-49
2021/06/06 07:36:29;;;;;;;2.67;2.47;;;16.60;99.90;;;;;;5022341;28;20481;-49
2021/06/06 07:38:56;;;;;;;2.80;2.60;;;16.60;99.90;;;;;;5024681;28;20464;-49
2021/06/06 07:41:24;;;;;;;3.30;3.00;;;16.50;99.90;;;;;;5026495;28;20483;-48
2021/06/06 07:43:50;;;;;;;3.80;2.93;;;16.50;99.90;;;;;;5023010;28;20840;-49
2021/06/06 07:46:18;;;;;;;4.30;3.03;;;16.40;99.90;;;;;;5025998;28;20814;-49
2021/06/06 07:48:45;;;;;;;4.00;3.60;;;16.40;99.90;;;;;;5024983;28;20464;-49
2021/06/06 07:51:12;;;;;;;3.50;3.20;;;16.50;99.90;;;;;;5025298;28;20835;-49
2021/06/06 07:53:38;;;;;;;4.60;3.33;;;16.60;99.90;;;;;;5026328;28;20461;-49
2021/06/06 07:56:06;;;;;;;2.70;2.50;;;16.60;99.90;;;;;;5023809;28;20484;-49
2021/06/06 07:58:35;;;;;;;3.30;3.10;;;16.50;99.90;;;;;;5022220;28;20495;-47
2021/06/06 08:01:03;;;;;;;2.97;2.77;;;16.50;99.90;;;;;;5023574;28;20497;-49
2021/06/06 08:03:31;;;;;;;4.50;2.70;;;16.50;99.90;;;;;;5023659;28;20476;-49
2021/06/06 08:05:58;;;;;;;3.87;2.77;;;16.40;99.90;;;;;;5024056;28;20453;-49
2021/06/06 08:08:25;;;;;;;3.40;2.60;;;16.30;99.90;;;;;;5023319;28;20951;-48
2021/06/06 08:10:54;;;;;;;3.90;2.73;;;16.30;99.90;;;;;;5021412;28;20481;-49
2021/06/06 08:13:22;;;;;;;3.37;2.50;;;16.50;99.90;;;;;;5023246;28;20555;-49
2021/06/06 08:15:48;;;;;;;3.23;2.70;;;16.50;99.90;;;;;;5025210;28;20484;-50
2021/06/06 08:18:18;;;;;;;2.90;2.70;;;16.50;99.90;;;;;;5022914;28;20471;-51
2021/06/06 08:20:48;;;;;;;2.50;2.30;;;16.50;99.90;;;;;;5021002;28;20575;-51
2021/06/06 08:23:16;;;;;;;2.77;2.57;;;16.60;99.90;;;;;;5022681;28;20523;-50
2021/06/06 08:25:43;;;;;;;2.60;2.20;;;16.60;99.90;;;;;;5022893;28;20453;-50
2021/06/06 08:28:11;;;;;;;5.00;2.90;;;16.40;99.90;;;;;;5021945;28;20460;-48
2021/06/06 08:30:40;;;;;;;2.47;2.27;;;16.40;99.90;;;;;;5024280;28;20493;-49
2021/06/06 08:33:07;;;;;;;3.33;2.13;;;16.30;99.90;;;;;;5020409;28;21278;-50
2021/06/06 08:35:34;;;;;;;2.90;2.23;;;16.30;99.90;;;;;;5023442;28;21031;-50
2021/06/06 08:38:03;;;;;;;2.67;2.47;;;16.30;99.90;;;;;;5029337;28;20472;-50
2021/06/06 08:40:34;;;;;;;2.60;2.23;;;16.40;99.90;;;;;;5019269;28;21010;-49
2021/06/06 08:43:03;;;;;;;3.47;2.93;;;16.40;99.90;;;;;;5018806;28;20469;-49
2021/06/06 08:45:34;;;;;;;3.60;2.23;;;16.30;99.90;;;;;;5022942;28;20468;-48
2021/06/06 08:48:03;;;;;;;4.47;2.67;;;16.30;99.90;;;;;;5022766;28;20456;-49
2021/06/06 08:50:32;;;;;;;2.83;2.63;;;16.30;99.90;;;;;;5024828;28;20650;-49
2021/06/06 08:53:09;;;;;;;2.63;2.40;;;16.40;99.90;;;;;;5024921;28;20464;-48
2021/06/06 08:55:41;;;;;;;2.47;2.27;;;16.70;99.90;;;;;;5022734;28;20484;-48
2021/06/06 08:58:25;;;;;;;8.23;2.70;;;16.60;99.90;;;;;;5023729;28;20468;-49
2021/06/06 09:00:59;;;;;;;2.80;2.60;;;16.60;99.90;;;;;;5025876;28;20487;-49
2021/06/06 09:03:28;;;;;;;3.30;3.03;;;16.60;99.90;;;;;;5030356;28;20456;-49
2021/06/06 09:06:01;;;;;;;3.57;3.27;;;16.70;99.90;;;;;;5019674;28;20456;-50
2021/06/06 09:08:33;;;;;;;3.10;2.80;;;16.70;99.90;;;;;;5021959;28;20464;-50
2021/06/06 09:11:03;;;;;;;3.47;2.93;;;16.70;99.90;;;;;;5022789;28;20634;-48
2021/06/06 09:13:31;;;;;;;3.57;3.23;;;16.70;99.90;;;;;;5023511;28;20832;-49
2021/06/06 09:16:12;;;;;;;3.60;3.13;;;16.60;99.90;;;;;;5023478;28;21144;-49
2021/06/06 09:18:44;;;;;;;3.53;2.93;;;16.80;99.90;;;;;;5022537;28;20464;-49
2021/06/06 09:21:15;;;;;;;9.53;3.23;;;16.70;99.90;;;;;;5022731;28;20476;-49
2021/06/06 09:23:45;;;;;;;3.83;3.10;;;16.80;99.90;;;;;;5024721;28;20464;-48
2021/06/06 09:26:22;;;;;;;4.63;2.60;;;16.80;99.90;;;;;;5023929;28;20480;-49
2021/06/06 09:29:01;;;;;;;2.20;2.10;;;16.80;99.90;;;;;;5022061;28;20455;-49
2021/06/06 09:31:28;;;;;;;2.03;1.83;;;16.80;99.90;;;;;;5013744;28;20510;-48
2021/06/06 09:34:01;;;;;;;2.10;1.90;;;16.70;99.90;;;;;;5024215;28;20850;-48
2021/06/06 09:36:31;;;;;;;2.10;2.00;;;16.70;99.90;;;;;;5023263;28;20489;-49
2021/06/06 09:39:17;;;;;;;2.37;2.20;;;16.70;99.90;;;;;;5022132;28;20480;-49
2021/06/06 09:41:46;;;;;;;3.00;2.33;;;16.60;99.90;;;;;;5017568;28;20449;-49
2021/06/06 09:44:21;;;;;;;1.73;1.63;;;16.70;99.90;;;;;;5031126;28;20459;-49
2021/06/06 09:46:50;;;;;;;1.73;1.63;;;16.60;99.90;;;;;;5028916;28;20440;-49
2021/06/06 09:49:28;;;;;;;2.13;1.80;;;16.70;99.90;;;;;;5030684;28;20855;-49
2021/06/06 09:51:57;;;;;;;2.53;2.00;;;16.70;99.90;;;;;;5025763;28;20949;-49
2021/06/06 09:54:31;;;;;;;2.40;2.20;;;16.80;99.90;;;;;;5011245;28;20449;-49
2021/06/06 09:57:00;;;;;;;2.20;2.00;;;16.90;99.90;;;;;;5025302;28;20487;-49
2021/06/06 09:59:29;;;;;;;2.70;2.30;;;17.00;99.90;;;;;;5030957;28;20453;-48
2021/06/06 10:02:01;;;;;;;3.60;2.10;;;17.10;99.90;;;;;;5019860;22;20525;-51
2021/06/06 10:04:31;;;;;;;3.87;2.47;;;17.30;99.90;;;;;;4964028;28;20821;-52
2021/06/06 10:07:10;;;;;;;3.63;2.23;;;17.40;99.90;;;;;;4965987;28;20454;-52
2021/06/06 10:09:41;;;;;;;2.53;2.33;;;17.70;99.90;;;;;;4988140;28;20857;-51
2021/06/06 10:12:10;;;;;;;3.20;2.90;;;18.00;99.90;;;;;;4976341;28;20459;-51
2021/06/06 10:14:43;;;;;;;2.50;2.30;;;18.00;99.90;;;;;;4974292;28;20864;-51
2021/06/06 10:17:13;;;;;;;2.17;2.03;;;17.90;99.90;;;;;;4969965;28;21067;-52
2021/06/06 10:19:44;;;;;;;3.23;2.47;;;18.10;99.90;;;;;;4994381;28;20512;-52
2021/06/06 10:22:18;;;;;;;2.20;2.03;;;18.20;99.90;;;;;;4980268;28;20475;-52
2021/06/06 10:24:57;;;;;;;3.87;2.90;;;18.30;99.90;;;;;;4975175;28;20459;-52
2021/06/06 10:27:28;;;;;;;6.67;2.80;;;18.40;99.90;;;;;;4974513;28;20462;-52
2021/06/06 10:30:00;;;;;;;3.27;2.97;;;18.30;99.90;;;;;;4975087;28;20506;-52
2021/06/06 10:32:30;;;;;;;7.50;2.50;;;18.30;99.90;;;;;;4970390;28;20486;-52
2021/06/06 10:35:04;;;;;;;2.73;2.50;;;18.40;99.90;;;;;;4967128;28;20969;-52
2021/06/06 10:37:30;;;;;;;2.60;2.40;;;18.10;99.90;;;;;;4961243;28;20486;-52
2021/06/06 10:40:00;;;;;;;3.10;2.90;;;18.20;99.90;;;;;;4994089;28;20536;-52
2021/06/06 10:42:33;;;;;;;3.30;3.00;;;18.30;99.90;;;;;;4979868;28;20468;-52
2021/06/06 10:45:09;;;;;;;3.60;2.93;;;18.60;99.90;;;;;;4964949;28;20459;-52
2021/06/06 10:47:42;;;;;;;3.30;3.10;;;18.50;99.90;;;;;;4968446;28;21112;-51
2021/06/06 10:50:33;;;;;;;3.43;3.13;;;18.70;99.90;;;;;;4958927;28;20826;-53
2021/06/06 10:53:19;;;;;;;3.07;2.87;;;18.70;99.90;;;;;;4964325;28;20973;-53
2021/06/06 10:56:08;;;;;;;3.37;3.17;;;18.80;99.90;;;;;;4955960;28;20514;-51
2021/06/06 10:58:43;;;;;;;3.57;3.10;;;18.70;99.90;;;;;;4956359;28;20448;-51
2021/06/06 11:01:24;;;;;;;3.67;2.73;;;18.60;99.90;;;;;;4973278;28;20490;-52
2021/06/06 11:03:54;;;;;;;2.53;2.30;;;18.50;99.90;;;;;;4954576;29;20522;-52
2021/06/06 11:06:26;;;;;;;5.50;2.77;;;18.40;99.90;;;;;;4971503;28;20538;-52
2021/06/06 11:08:53;;;;;;;4.33;3.13;;;18.50;99.90;;;;;;4973402;28;20447;-52
2021/06/06 11:11:30;;;;;;;3.57;2.93;;;18.40;99.90;;;;;;4972968;28;20904;-52
2021/06/06 11:14:02;;;;;;;3.93;2.83;;;18.40;99.90;;;;;;4965368;28;20509;-52
2021/06/06 11:16:38;;;;;;;3.00;2.70;;;18.50;99.90;;;;;;4972901;28;20566;-51
2021/06/06 11:19:11;;;;;;;3.03;2.80;;;18.50;99.90;;;;;;4972497;28;20517;-52
2021/06/06 11:21:42;;;;;;;3.90;2.60;;;18.50;99.90;;;;;;4972180;28;20534;-51
2021/06/06 11:24:26;;;;;;;2.80;2.60;;;18.50;99.90;;;;;;4984418;28;20460;-52
2021/06/06 11:27:05;;;;;;;3.40;2.90;;;18.60;99.90;;;;;;4972195;28;20700;-52
2021/06/06 11:29:43;;;;;;;3.10;2.90;;;18.40;99.90;;;;;;4973050;28;20451;-52
2021/06/06 11:32:21;;;;;;;4.30;3.27;;;18.30;99.90;;;;;;4972979;28;20471;-52
2021/06/06 11:34:51;;;;;;;3.20;3.00;;;18.40;99.90;;;;;;4973822;28;20451;-52
2021/06/06 11:37:40;;;;;;;2.80;2.60;;;18.40;99.90;;;;;;4973732;28;20594;-52
2021/06/06 11:40:23;;;;;;;3.23;2.80;;;18.30;99.90;;;;;;4985848;28;20458;-52
2021/06/06 11:42:53;;;;;;;2.70;2.50;;;18.30;99.90;;;;;;4977466;28;20462;-52
2021/06/06 11:45:27;;;;;;;3.17;2.90;;;18.30;99.90;;;;;;4973549;28;20456;-52
2021/06/06 11:47:57;;;;;;;3.70;2.63;;;18.20;99.90;;;;;;4973589;28;20523;-52
2021/06/06 11:50:28;;;;;;;3.40;2.70;;;18.20;99.90;;;;;;4973150;28;20558;-51
2021/06/06 11:53:00;;;;;;;4.03;2.80;;;18.30;99.90;;;;;;4973140;28;20514;-52
2021/06/06 11:55:33;;;;;;;3.33;3.00;;;18.20;99.90;;;;;;4992550;28;20481;-52
2021/06/06 11:58:10;;;;;;;4.60;3.00;;;18.40;99.90;;;;;;4992588;28;20486;-52
2021/06/06 12:00:40;;;;;;;3.17;2.87;;;18.40;99.90;;;;;;4974965;28;20455;-52
2021/06/06 12:03:13;;;;;;;3.00;2.70;;;18.40;99.90;;;;;;4972479;28;20830;-52
2021/06/06 12:05:50;;;;;;;3.73;3.30;;;18.40;99.90;;;;;;4976767;28;20974;-51
2021/06/06 12:08:16;;;;;;;4.00;3.20;;;18.40;99.90;;;;;;4991212;28;20484;-51
2021/06/06 12:10:52;;;;;;;3.87;3.17;;;18.40;99.90;;;;;;4992087;28;20886;-52
2021/06/06 12:13:24;;;;;;;3.30;3.10;;;18.50;99.90;;;;;;4975194;28;20461;-52
2021/06/06 12:15:51;;;;;;;3.40;3.10;;;18.60;99.90;;;;;;4972596;28;20995;-51
2021/06/06 12:18:21;;;;;;;3.03;2.77;;;18.60;99.90;;;;;;4981031;28;20529;-52
2021/06/06 12:20:55;;;;;;;3.57;3.00;;;18.60;99.90;;;;;;4992370;28;20467;-51
2021/06/06 12:23:25;;;;;;;3.50;3.20;;;18.60;99.90;;;;;;4974845;28;20456;-52
2021/06/06 12:25:52;;;;;;;4.23;3.63;;;18.40;99.90;;;;;;4972683;28;20444;-51
2021/06/06 12:28:22;;;;;;;3.70;3.40;;;18.40;99.90;;;;;;4972489;28;20455;-52
2021/06/06 12:30:55;;;;;;;3.63;3.27;;;18.30;99.90;;;;;;4971799;28;20506;-52
2021/06/06 12:33:28;;;;;;;3.33;3.03;;;18.40;99.90;;;;;;4972249;28;20467;-52
2021/06/06 12:36:01;;;;;;;3.27;2.90;;;18.40;99.90;;;;;;4972193;28;20486;-52
2021/06/06 12:38:28;;;;;;;4.20;3.10;;;18.50;99.90;;;;;;4972382;28;20455;-52
2021/06/06 12:40:55;;;;;;;3.50;3.20;;;18.40;99.90;;;;;;4972286;28;20467;-51
2021/06/06 12:43:27;;;;;;;4.97;3.50;;;18.40;99.90;;;;;;4971741;28;20466;-51
2021/06/06 12:45:55;;;;;;;4.03;3.73;;;18.30;99.90;;;;;;4972480;28;21001;-52
2021/06/06 12:48:30;;;;;;;3.80;3.50;;;18.40;99.90;;;;;;4972222;28;20511;-52
2021/06/06 12:50:58;;;;;;;2.90;2.70;;;18.30;99.90;;;;;;4972570;28;20960;-53
2021/06/06 12:53:29;;;;;;;2.50;2.10;;;18.30;99.90;;;;;;4971981;28;20459;-52
2021/06/06 12:56:10;;;;;;;1.70;1.60;;;18.40;99.90;;;;;;4972289;28;20475;-52
2021/06/06 12:58:40;;;;;;;1.60;1.50;;;18.40;99.90;;;;;;4971250;28;20486;-52
2021/06/06 13:01:26;;;;;;;1.50;1.37;;;18.20;99.90;;;;;;4972735;28;20518;-55